Time;durP1;ratioP1;P1;durP2;ratioP2;P2;SDS_P1;SDS_P2;PMS_P1;PMS_P2;Temp;Humidity;BMP_temperature;BMP_pressure;BME280_temperature;BME280_humidity;BME280_pressure;Samples;Min_cycle;Max_cycle;Signal;HPM_P1;HPM_P2
2022/06/23 00:01:01;;;;;;;3.63;1.98;;;;;;;;;;5087040;28;20070;-85
2022/06/23 00:03:34;;;;;;;3.10;1.98;;;;;;;;;;5069085;28;20041;-85
2022/06/23 00:06:07;;;;;;;5.30;2.10;;;;;;;;;;5065430;28;20106;-86
2022/06/23 00:08:46;;;;;;;4.18;2.20;;;;;;;;;;5066000;28;20119;-86
2022/06/23 00:11:23;;;;;;;4.07;2.00;;;;;;;;;;5084565;28;20494;-86
2022/06/23 00:13:54;;;;;;;3.75;2.00;;;;;;;;;;5070031;28;20127;-86
2022/06/23 00:16:27;;;;;;;3.25;2.00;;;;;;;;;;5070358;28;20063;-86
2022/06/23 00:19:20;;;;;;;4.50;2.03;;;;;;;;;;5072218;28;20119;-85
2022/06/23 00:22:17;;;;;;;3.28;2.25;;;;;;;;;;5068695;28;20040;-85
2022/06/23 00:24:52;;;;;;;4.13;2.33;;;;;;;;;;5070971;28;20402;-86
2022/06/23 00:27:22;;;;;;;3.67;2.10;;;;;;;;;;5106209;28;20045;-86
2022/06/23 00:30:22;;;;;;;3.75;1.90;;;;;;;;;;5077837;28;20036;-85
2022/06/23 00:33:00;;;;;;;3.35;2.30;;;;;;;;;;5075961;28;20159;-85
2022/06/23 00:35:28;;;;;;;3.10;2.00;;;;;;;;;;5075820;28;20048;-85
2022/06/23 00:38:31;;;;;;;5.40;2.35;;;;;;;;;;5072376;28;20037;-85
2022/06/23 00:41:00;;;;;;;3.40;2.00;;;;;;;;;;5073731;28;20036;-85
2022/06/23 00:43:34;;;;;;;3.53;2.30;;;;;;;;;;5074386;28;20036;-85
2022/06/23 00:46:09;;;;;;;4.90;2.40;;;;;;;;;;5077330;28;20044;-85
2022/06/23 00:48:51;;;;;;;4.43;2.20;;;;;;;;;;5076149;28;20032;-84
2022/06/23 00:51:49;;;;;;;3.58;2.35;;;;;;;;;;5078184;28;20522;-84
2022/06/23 00:54:30;;;;;;;3.33;2.20;;;;;;;;;;5079815;28;20043;-85
2022/06/23 00:57:24;;;;;;;4.90;2.20;;;;;;;;;;5077346;28;20032;-85
2022/06/23 01:00:06;;;;;;;6.18;2.63;;;;;;;;;;5076513;28;20067;-85
2022/06/23 01:02:39;;;;;;;3.78;2.50;;;;;;;;;;5078233;28;20567;-85
2022/06/23 01:05:29;;;;;;;4.85;2.50;;;;;;;;;;5078911;28;20044;-85
2022/06/23 01:08:03;;;;;;;3.67;2.30;;;;;;;;;;5077341;28;20044;-84
2022/06/23 01:10:47;;;;;;;3.50;2.20;;;;;;;;;;5073854;28;20047;-85
2022/06/23 01:13:22;;;;;;;4.15;2.45;;;;;;;;;;5073150;28;20048;-84
2022/06/23 01:16:07;;;;;;;4.22;2.38;;;;;;;;;;5078581;28;20044;-84
2022/06/23 01:18:41;;;;;;;5.38;2.58;;;;;;;;;;5073504;28;20044;-84
2022/06/23 01:21:44;;;;;;;3.88;2.33;;;;;;;;;;5077654;28;20024;-84
2022/06/23 01:24:46;;;;;;;4.85;2.25;;;;;;;;;;5077734;28;20589;-84
2022/06/23 01:28:04;;;;;;;5.95;2.30;;;;;;;;;;5074931;28;20078;-84
2022/06/23 01:30:40;;;;;;;5.25;2.20;;;;;;;;;;5071460;28;20111;-84
2022/06/23 01:33:22;;;;;;;3.50;2.22;;;;;;;;;;5076779;28;20045;-84
2022/06/23 01:36:07;;;;;;;4.95;2.58;;;;;;;;;;5106772;28;20051;-84
2022/06/23 01:39:04;;;;;;;4.15;2.40;;;;;;;;;;5079827;28;20872;-84
2022/06/23 01:41:56;;;;;;;5.65;2.50;;;;;;;;;;5079735;28;20048;-84
2022/06/23 01:45:04;;;;;;;5.03;2.13;;;;;;;;;;5074247;28;20060;-84
2022/06/23 01:47:48;;;;;;;5.18;2.50;;;;;;;;;;5105990;28;20048;-85
2022/06/23 01:50:49;;;;;;;4.30;2.40;;;;;;;;;;5074894;28;20033;-84
2022/06/23 01:53:41;;;;;;;4.85;2.20;;;;;;;;;;5079252;28;20681;-85
2022/06/23 01:56:46;;;;;;;5.25;2.35;;;;;;;;;;5095598;28;20072;-85
2022/06/23 01:59:47;;;;;;;5.03;2.53;;;;;;;;;;5078374;28;20036;-85
2022/06/23 02:02:51;;;;;;;5.35;2.45;;;;;;;;;;5077631;28;20055;-85
2022/06/23 02:05:29;;;;;;;3.55;2.30;;;;;;;;;;5069024;28;20040;-84
2022/06/23 02:08:08;;;;;;;4.20;2.42;;;;;;;;;;5092686;28;20466;-84
2022/06/23 02:10:47;;;;;;;3.95;2.45;;;;;;;;;;5089114;28;20043;-85
2022/06/23 02:13:30;;;;;;;4.55;2.70;;;;;;;;;;5072428;28;20276;-86
2022/06/23 02:16:16;;;;;;;4.72;2.72;;;;;;;;;;5067854;28;20048;-86
2022/06/23 02:19:06;;;;;;;5.25;3.22;;;;;;;;;;5056813;28;20135;-87
2022/06/23 02:21:46;;;;;;;5.13;3.20;;;;;;;;;;5072442;28;20036;-87
2022/06/23 02:24:34;;;;;;;8.80;4.03;;;;;;;;;;5070877;28;20052;-87
2022/06/23 02:27:16;;;;;;;6.03;4.07;;;;;;;;;;5077961;28;20628;-87
2022/06/23 02:30:12;;;;;;;6.93;4.00;;;;;;;;;;5072015;28;20072;-85
2022/06/23 02:32:55;;;;;;;5.38;3.60;;;;;;;;;;5074388;28;20037;-84
2022/06/23 02:35:53;;;;;;;8.70;4.38;;;;;;;;;;5071294;28;20195;-87
2022/06/23 02:38:48;;;;;;;9.82;4.10;;;;;;;;;;5068538;28;20237;-86
2022/06/23 02:41:41;;;;;;;6.50;4.68;;;;;;;;;;5069106;28;20048;-87
2022/06/23 02:44:19;;;;;;;6.30;4.20;;;;;;;;;;5084793;28;20064;-87
2022/06/23 02:46:50;;;;;;;9.00;5.00;;;;;;;;;;5088961;28;20135;-86
2022/06/23 02:49:34;;;;;;;6.78;4.22;;;;;;;;;;5069866;28;20433;-87
2022/06/23 02:52:51;;;;;;;6.32;4.03;;;;;;;;;;5074330;28;20036;-85
2022/06/23 02:55:36;;;;;;;7.20;3.35;;;;;;;;;;5073145;28;20091;-85
2022/06/23 02:58:25;;;;;;;5.47;3.67;;;;;;;;;;5070900;28;20041;-86
2022/06/23 03:01:34;;;;;;;6.43;3.90;;;;;;;;;;5069835;28;20032;-87
2022/06/23 03:04:14;;;;;;;7.03;3.83;;;;;;;;;;5070029;28;20090;-89
2022/06/23 03:06:51;;;;;;;5.72;3.65;;;;;;;;;;5069334;28;20036;-89
2022/06/23 03:09:30;;;;;;;5.30;3.70;;;;;;;;;;5084258;28;20040;-88
2022/06/23 03:12:03;;;;;;;7.25;4.30;;;;;;;;;;5070126;28;20075;-88
2022/06/23 03:14:32;;;;;;;8.90;5.05;;;;;;;;;;5064947;28;20402;-89
2022/06/23 03:17:17;;;;;;;8.02;4.70;;;;;;;;;;5069264;28;20068;-89
2022/06/23 03:19:54;;;;;;;6.78;4.45;;;;;;;;;;5071773;28;20094;-85
2022/06/23 03:23:02;;;;;;;8.90;4.65;;;;;;;;;;5073632;28;20028;-85
2022/06/23 03:25:35;;;;;;;9.63;4.78;;;;;;;;;;5067988;28;20037;-86
2022/06/23 03:28:15;;;;;;;8.63;5.07;;;;;;;;;;5066995;28;20124;-86
2022/06/23 03:30:52;;;;;;;7.68;5.00;;;;;;;;;;5087143;28;20409;-86
2022/06/23 03:33:42;;;;;;;7.50;4.90;;;;;;;;;;5065927;28;20033;-87
2022/06/23 03:36:12;;;;;;;7.72;4.80;;;;;;;;;;5061105;28;20075;-88
2022/06/23 03:41:48;;;;;;;7.38;4.70;;;;;;;;;;5068735;28;20040;-88
2022/06/23 03:44:50;;;;;;;6.10;3.95;;;;;;;;;;5067836;28;20064;-88
2022/06/23 03:48:01;;;;;;;8.55;4.75;;;;;;;;;;5067264;28;20413;-88
2022/06/23 03:50:43;;;;;;;8.55;4.47;;;;;;;;;;5098158;28;20398;-88
2022/06/23 03:53:50;;;;;;;6.93;4.53;;;;;;;;;;5088586;28;20029;-89
2022/06/23 03:56:28;;;;;;;8.55;4.68;;;;;;;;;;5100129;28;20047;-90
2022/06/23 03:58:58;;;;;;;9.10;4.53;;;;;;;;;;5072048;28;20028;-89
2022/06/23 04:01:57;;;;;;;8.70;4.55;;;;;;;;;;5072790;28;20056;-88
2022/06/23 04:04:44;;;;;;;7.05;4.60;;;;;;;;;;5071665;28;20040;-89
2022/06/23 04:07:30;;;;;;;8.48;4.47;;;;;;;;;;5052113;28;20406;-89
2022/06/23 04:10:10;;;;;;;8.48;4.72;;;;;;;;;;5066233;28;20067;-84
2022/06/23 04:13:23;;;;;;;7.03;4.28;;;;;;;;;;5067123;28;20082;-84
2022/06/23 04:15:55;;;;;;;7.90;4.75;;;;;;;;;;5071618;28;20040;-85
2022/06/23 04:18:27;;;;;;;7.20;4.53;;;;;;;;;;5067036;28;20045;-85
2022/06/23 04:21:08;;;;;;;9.48;4.75;;;;;;;;;;5101220;28;20090;-85
2022/06/23 04:23:44;;;;;;;7.18;4.30;;;;;;;;;;5069660;28;20102;-85
2022/06/23 04:26:28;;;;;;;7.75;4.35;;;;;;;;;;5069000;28;20073;-85
2022/06/23 04:29:27;;;;;;;8.65;5.07;;;;;;;;;;5074317;28;20044;-85
2022/06/23 04:32:14;;;;;;;10.32;4.53;;;;;;;;;;5075801;28;20047;-83
2022/06/23 04:35:13;;;;;;;8.95;4.93;;;;;;;;;;5078007;28;20044;-84
2022/06/23 04:37:48;;;;;;;7.97;4.38;;;;;;;;;;5073103;28;20510;-86
2022/06/23 04:40:54;;;;;;;9.90;5.38;;;;;;;;;;5069261;28;20079;-86
2022/06/23 04:43:40;;;;;;;12.25;5.00;;;;;;;;;;5048514;28;20081;-85
2022/06/23 04:46:26;;;;;;;13.55;4.70;;;;;;;;;;5049554;28;20072;-85
2022/06/23 04:48:59;;;;;;;8.23;4.47;;;;;;;;;;5049109;28;20060;-86
2022/06/23 04:51:39;;;;;;;8.20;4.30;;;;;;;;;;5049175;28;20073;-85
2022/06/23 04:54:10;;;;;;;9.65;4.43;;;;;;;;;;5050689;28;20061;-85
2022/06/23 04:56:43;;;;;;;11.00;4.35;;;;;;;;;;5053522;28;20081;-85
2022/06/23 04:59:25;;;;;;;11.23;3.80;;;;;;;;;;5062300;28;20044;-82
2022/06/23 05:01:56;;;;;;;9.43;4.15;;;;;;;;;;5046396;28;20112;-83
2022/06/23 05:04:29;;;;;;;7.63;3.70;;;;;;;;;;5045680;28;20040;-85
2022/06/23 05:07:02;;;;;;;7.32;3.65;;;;;;;;;;5050120;28;20123;-86
2022/06/23 05:09:38;;;;;;;5.95;3.53;;;;;;;;;;5045175;28;20044;-84
2022/06/23 05:12:21;;;;;;;7.78;4.03;;;;;;;;;;5049692;28;20057;-86
2022/06/23 05:14:56;;;;;;;8.98;3.80;;;;;;;;;;5047637;28;20052;-84
2022/06/23 05:17:30;;;;;;;7.22;3.88;;;;;;;;;;5041988;28;20136;-85
2022/06/23 05:20:00;;;;;;;8.25;3.80;;;;;;;;;;5062108;28;20084;-82
2022/06/23 05:22:36;;;;;;;9.52;3.50;;;;;;;;;;5061250;28;20513;-84
2022/06/23 05:25:15;;;;;;;8.68;3.00;;;;;;;;;;5061724;28;20044;-85
2022/06/23 05:27:46;;;;;;;7.35;3.50;;;;;;;;;;5064074;28;20044;-84
2022/06/23 05:30:34;;;;;;;7.78;3.65;;;;;;;;;;5063542;28;20040;-83
2022/06/23 05:33:19;;;;;;;4.07;2.85;;;;;;;;;;5068576;28;20050;-84
2022/06/23 05:36:34;;;;;;;6.72;3.28;;;;;;;;;;5067683;28;20119;-84
2022/06/23 05:39:12;;;;;;;7.45;3.20;;;;;;;;;;5067271;28;20041;-83
2022/06/23 05:41:43;;;;;;;9.93;3.28;;;;;;;;;;5067967;28;20051;-85
2022/06/23 05:44:16;;;;;;;5.63;3.15;;;;;;;;;;5071522;28;20044;-85
2022/06/23 05:47:12;;;;;;;6.00;2.78;;;;;;;;;;5069596;28;20043;-85
2022/06/23 05:49:46;;;;;;;7.30;3.20;;;;;;;;;;5071084;28;20062;-84
2022/06/23 05:52:29;;;;;;;5.80;2.90;;;;;;;;;;5069576;28;20071;-85
2022/06/23 05:55:12;;;;;;;8.38;3.70;;;;;;;;;;5064503;28;20048;-84
2022/06/23 05:58:14;;;;;;;5.30;2.42;;;;;;;;;;5100869;28;20044;-83
2022/06/23 06:00:51;;;;;;;8.60;2.88;;;;;;;;;;5066407;28;20079;-84
2022/06/23 06:04:10;;;;;;;6.35;3.10;;;;;;;;;;5068380;28;20102;-85
2022/06/23 06:06:45;;;;;;;3.60;2.47;;;;;;;;;;5063135;28;20526;-83
2022/06/23 06:09:35;;;;;;;7.28;2.92;;;;;;;;;;5069018;28;20135;-84
2022/06/23 06:12:14;;;;;;;5.82;3.15;;;;;;;;;;5073185;28;20041;-84
2022/06/23 06:14:58;;;;;;;5.15;2.90;;;;;;;;;;5070412;28;20043;-84
2022/06/23 06:17:33;;;;;;;4.50;2.60;;;;;;;;;;5069771;28;20674;-85
2022/06/23 06:20:07;;;;;;;4.25;2.40;;;;;;;;;;5070488;28;20123;-85
2022/06/23 06:23:08;;;;;;;6.57;3.05;;;;;;;;;;5069823;28;20050;-85
2022/06/23 06:25:39;;;;;;;6.13;2.90;;;;;;;;;;5070794;28;20052;-84
2022/06/23 06:28:22;;;;;;;4.05;2.50;;;;;;;;;;5068717;28;20041;-84
2022/06/23 06:31:24;;;;;;;7.05;2.65;;;;;;;;;;5064178;28;20033;-85
2022/06/23 06:34:14;;;;;;;6.30;2.70;;;;;;;;;;5064455;28;20062;-85
2022/06/23 06:36:46;;;;;;;4.97;3.10;;;;;;;;;;5068266;28;20148;-85
2022/06/23 06:39:45;;;;;;;5.10;2.83;;;;;;;;;;5098370;28;20032;-84
2022/06/23 06:42:18;;;;;;;7.10;3.03;;;;;;;;;;5066457;28;20055;-85
2022/06/23 06:44:50;;;;;;;6.85;3.40;;;;;;;;;;5065851;28;20165;-84
2022/06/23 06:47:44;;;;;;;;;;;;;;;;;;5063320;28;20659;-84
2022/06/23 06:50:40;;;;;;;8.80;3.38;;;;;;;;;;5066844;28;19961;-84
2022/06/23 06:53:16;;;;;;;5.93;2.90;;;;;;;;;;5064602;28;21424;-84
2022/06/23 06:55:49;;;;;;;5.80;2.80;;;;;;;;;;5065258;28;20032;-84
2022/06/23 06:58:45;;;;;;;5.10;2.38;;;;;;;;;;5067438;28;20036;-85
2022/06/23 07:01:18;;;;;;;6.15;2.92;;;;;;;;;;5067507;28;20111;-85
2022/06/23 07:03:49;;;;;;;6.13;3.28;;;;;;;;;;5097719;28;20060;-84
2022/06/23 07:06:37;;;;;;;5.15;2.70;;;;;;;;;;5084217;28;20044;-84
2022/06/23 07:09:11;;;;;;;8.48;2.97;;;;;;;;;;5068674;28;20529;-85
2022/06/23 07:11:50;;;;;;;6.07;2.50;;;;;;;;;;5066060;28;20040;-85
2022/06/23 07:14:37;;;;;;;5.40;2.83;;;;;;;;;;5065933;28;20036;-85
2022/06/23 07:17:09;;;;;;;5.13;2.60;;;;;;;;;;5069268;28;20090;-85
2022/06/23 07:20:21;;;;;;;3.95;2.47;;;;;;;;;;5068264;28;20047;-86
2022/06/23 07:22:54;;;;;;;5.90;2.80;;;;;;;;;;5026804;28;20061;-85
2022/06/23 07:25:32;;;;;;;4.80;2.50;;;;;;;;;;5027865;28;20073;-85
2022/06/23 07:28:11;;;;;;;6.90;2.55;;;;;;;;;;5029063;28;20076;-85
2022/06/23 07:31:12;;;;;;;6.00;2.70;;;;;;;;;;5026297;28;20041;-85
2022/06/23 07:33:53;;;;;;;4.78;2.33;;;;;;;;;;5008093;28;20712;-85
2022/06/23 07:37:02;;;;;;;5.88;2.60;;;;;;;;;;5027112;28;20529;-85
2022/06/23 07:39:35;;;;;;;7.22;2.80;;;;;;;;;;4949171;28;20047;-85
2022/06/23 07:42:07;;;;;;;6.72;2.33;;;;;;;;;;4949543;28;20133;-85
2022/06/23 07:44:47;;;;;;;4.47;2.50;;;;;;;;;;4951337;29;20066;-84
2022/06/23 07:48:04;;;;;;;4.10;2.45;;;;;;;;;;4950639;28;20043;-84
2022/06/23 07:50:31;;;;;;;5.88;2.40;;;;;;;;;;4950294;28;20047;-85
2022/06/23 07:53:36;;;;;;;4.95;2.40;;;;;;;;;;4948510;28;20117;-85
2022/06/23 07:56:05;;;;;;;3.55;1.90;;;;;;;;;;4948863;28;20793;-85
2022/06/23 07:58:36;;;;;;;6.63;2.30;;;;;;;;;;4953050;28;20074;-85
2022/06/23 08:01:15;;;;;;;5.55;2.10;;;;;;;;;;4961702;28;20038;-85
2022/06/23 08:04:22;;;;;;;3.15;2.00;;;;;;;;;;4960615;28;23248;-85
2022/06/23 08:06:50;;;;;;;4.85;2.00;;;;;;;;;;4961192;28;20062;-85
2022/06/23 08:09:28;;;;;;;6.60;2.60;;;;;;;;;;4960230;28;20055;-85
2022/06/23 08:17:50;;;;;;;7.07;2.28;;;;;;;;;;5045611;28;20127;-85
2022/06/23 08:20:21;;;;;;;6.55;1.90;;;;;;;;;;5027892;28;20836;-85
2022/06/23 08:22:53;;;;;;;4.20;2.20;;;;;;;;;;5044413;28;20131;-85
2022/06/23 08:25:22;;;;;;;5.57;2.10;;;;;;;;;;5043727;28;20084;-85
2022/06/23 08:27:52;;;;;;;5.90;2.10;;;;;;;;;;5045341;28;20045;-85
2022/06/23 08:30:23;;;;;;;4.22;2.10;;;;;;;;;;5045033;28;20051;-85
2022/06/23 08:32:53;;;;;;;5.15;1.80;;;;;;;;;;5040801;28;20052;-85
2022/06/23 08:35:39;;;;;;;5.30;2.03;;;;;;;;;;5042826;28;20570;-85
2022/06/23 08:38:22;;;;;;;7.03;2.10;;;;;;;;;;5041675;28;20106;-85
2022/06/23 08:41:26;;;;;;;5.05;2.40;;;;;;;;;;5043852;28;20733;-84
2022/06/23 08:44:32;;;;;;;3.92;1.88;;;;;;;;;;5060528;28;20049;-85
2022/06/23 08:47:11;;;;;;;4.97;1.90;;;;;;;;;;5061381;28;20044;-85
2022/06/23 08:50:02;;;;;;;5.18;2.20;;;;;;;;;;5061454;28;20041;-85
2022/06/23 08:52:38;;;;;;;7.18;2.42;;;;;;;;;;5061830;28;20494;-85
2022/06/23 08:55:18;;;;;;;9.73;2.00;;;;;;;;;;5063431;28;20040;-85
2022/06/23 08:58:21;;;;;;;;;;;;;;;;;;5062081;28;20046;-86
2022/06/23 09:01:02;;;;;;;9.10;2.30;;;;;;;;;;5064238;28;19924;-86
2022/06/23 09:04:00;;;;;;;4.45;1.95;;;;;;;;;;5063269;28;20037;-85
2022/06/23 09:06:36;;;;;;;5.68;2.30;;;;;;;;;;5061775;28;20063;-86
2022/06/23 09:09:52;;;;;;;5.05;2.30;;;;;;;;;;5062015;28;20119;-86
2022/06/23 09:12:32;;;;;;;4.45;2.08;;;;;;;;;;5021602;28;20172;-85
2022/06/23 09:15:53;;;;;;;7.15;2.08;;;;;;;;;;5026198;28;20916;-86
2022/06/23 09:18:46;;;;;;;4.68;1.90;;;;;;;;;;4970050;28;20085;-85
2022/06/23 09:21:35;;;;;;;4.75;2.00;;;;;;;;;;4969821;28;20063;-85
2022/06/23 09:24:42;;;;;;;5.35;2.53;;;;;;;;;;4966234;28;20141;-85
2022/06/23 09:27:29;;;;;;;5.13;2.10;;;;;;;;;;4946670;28;20047;-86
2022/06/23 09:30:04;;;;;;;4.90;2.10;;;;;;;;;;4968118;28;20054;-86
2022/06/23 09:33:08;;;;;;;6.57;2.13;;;;;;;;;;4969225;28;20043;-86
2022/06/23 09:36:21;;;;;;;3.83;2.00;;;;;;;;;;4969011;28;20141;-86
2022/06/23 09:39:01;;;;;;;4.00;1.77;;;;;;;;;;4953068;28;20948;-86
2022/06/23 09:42:17;;;;;;;5.85;1.92;;;;;;;;;;4965805;28;20094;-86
2022/06/23 09:45:06;;;;;;;3.60;2.00;;;;;;;;;;4944040;28;20124;-86
2022/06/23 09:47:33;;;;;;;5.35;2.13;;;;;;;;;;4965490;28;20047;-85
2022/06/23 09:50:34;;;;;;;4.93;1.95;;;;;;;;;;5005156;28;20053;-86
2022/06/23 09:53:07;;;;;;;5.45;1.98;;;;;;;;;;5005772;28;20136;-86
2022/06/23 09:56:02;;;;;;;3.65;1.98;;;;;;;;;;5053254;28;20045;-86
2022/06/23 09:58:48;;;;;;;4.20;1.80;;;;;;;;;;5063158;28;20041;-86
2022/06/23 10:01:45;;;;;;;6.28;2.17;;;;;;;;;;5059616;28;20090;-85
2022/06/23 10:04:57;;;;;;;3.00;1.95;;;;;;;;;;5060082;28;20044;-86
2022/06/23 10:07:51;;;;;;;5.35;1.90;;;;;;;;;;5061402;28;20037;-86
2022/06/23 10:10:37;;;;;;;3.75;1.90;;;;;;;;;;5061538;28;20098;-86
2022/06/23 10:13:17;;;;;;;4.03;2.03;;;;;;;;;;5064386;28;20044;-86
2022/06/23 10:16:23;;;;;;;3.42;2.00;;;;;;;;;;5062676;28;20040;-86
2022/06/23 10:19:27;;;;;;;5.68;2.03;;;;;;;;;;5063346;28;20187;-86
2022/06/23 10:22:05;;;;;;;7.20;2.13;;;;;;;;;;5078776;28;20128;-86
2022/06/23 10:24:41;;;;;;;5.70;2.40;;;;;;;;;;5062300;28;20040;-86
2022/06/23 10:27:19;;;;;;;4.80;2.10;;;;;;;;;;5061683;28;20055;-84
2022/06/23 10:30:10;;;;;;;3.67;1.90;;;;;;;;;;5078015;28;20534;-86
2022/06/23 10:33:14;;;;;;;6.05;2.17;;;;;;;;;;5092832;28;20424;-86
2022/06/23 10:36:24;;;;;;;4.30;2.03;;;;;;;;;;5063653;28;20071;-86
2022/06/23 10:39:05;;;;;;;5.10;1.92;;;;;;;;;;5080464;28;20082;-86
2022/06/23 10:42:04;;;;;;;3.97;2.70;;;;;;;;;;5062678;28;20091;-86
2022/06/23 10:45:14;;;;;;;4.88;2.05;;;;;;;;;;5063402;28;20083;-86
2022/06/23 10:48:03;;;;;;;3.97;1.90;;;;;;;;;;5061358;28;20419;-86
2022/06/23 10:51:12;;;;;;;8.13;2.03;;;;;;;;;;5061896;28;20032;-86
2022/06/23 10:54:01;;;;;;;4.85;2.17;;;;;;;;;;5063081;28;20047;-86
2022/06/23 10:57:08;;;;;;;4.47;2.05;;;;;;;;;;5064310;28;20047;-86
2022/06/23 10:59:43;;;;;;;2.78;1.48;;;;;;;;;;5064347;28;20067;-86
2022/06/23 11:02:48;;;;;;;3.75;1.75;;;;;;;;;;5060384;28;20070;-85
2022/06/23 11:05:43;;;;;;;3.17;1.85;;;;;;;;;;5082426;28;20132;-86
2022/06/23 11:08:20;;;;;;;4.10;2.10;;;;;;;;;;5057571;28;20127;-85
2022/06/23 11:10:55;;;;;;;3.67;1.80;;;;;;;;;;5059242;28;21449;-86
2022/06/23 11:14:14;;;;;;;3.42;1.90;;;;;;;;;;5065076;28;20046;-85
2022/06/23 11:16:58;;;;;;;6.90;1.90;;;;;;;;;;5062146;28;20597;-86
2022/06/23 11:19:37;;;;;;;4.47;1.90;;;;;;;;;;5060846;28;20040;-86
2022/06/23 11:22:21;;;;;;;5.45;2.10;;;;;;;;;;5061799;28;20101;-85
2022/06/23 11:25:16;;;;;;;3.22;1.55;;;;;;;;;;5063560;28;20045;-85
2022/06/23 11:28:43;;;;;;;3.97;1.65;;;;;;;;;;5061213;28;20048;-86
2022/06/23 11:31:42;;;;;;;4.80;2.05;;;;;;;;;;5076429;28;20513;-86
2022/06/23 11:34:57;;;;;;;2.65;1.40;;;;;;;;;;5077048;28;20056;-87
2022/06/23 11:37:57;;;;;;;4.60;2.00;;;;;;;;;;5033762;28;20084;-85
2022/06/23 11:40:54;;;;;;;3.45;1.48;;;;;;;;;;5034556;28;20663;-85
2022/06/23 11:44:12;;;;;;;4.75;1.85;;;;;;;;;;5016122;28;20049;-85
2022/06/23 11:46:49;;;;;;;4.15;1.70;;;;;;;;;;5032632;28;20053;-85
2022/06/23 11:49:25;;;;;;;4.53;1.70;;;;;;;;;;5016131;28;20064;-85
2022/06/23 11:52:24;;;;;;;2.60;1.60;;;;;;;;;;5032184;28;20049;-85
2022/06/23 11:55:20;;;;;;;3.20;1.55;;;;;;;;;;5032916;28;20068;-86
2022/06/23 11:58:24;;;;;;;3.72;1.63;;;;;;;;;;5034843;28;20060;-85
2022/06/23 12:01:16;;;;;;;4.40;1.63;;;;;;;;;;5032217;28;20103;-86
2022/06/23 12:04:00;;;;;;;6.72;1.83;;;;;;;;;;5034675;28;20053;-87
2022/06/23 12:07:19;;;;;;;3.42;1.70;;;;;;;;;;5035452;28;20056;-87
2022/06/23 12:10:21;;;;;;;3.28;1.60;;;;;;;;;;5036347;28;20482;-86
2022/06/23 12:12:54;;;;;;;4.20;1.60;;;;;;;;;;4992191;28;20153;-86
2022/06/23 12:15:50;;;;;;;6.78;1.63;;;;;;;;;;5058975;28;20149;-86
2022/06/23 12:18:23;;;;;;;4.72;1.60;;;;;;;;;;5062193;28;20107;-86
2022/06/23 12:21:17;;;;;;;2.85;1.70;;;;;;;;;;5059418;28;21471;-86
2022/06/23 12:23:52;;;;;;;3.90;1.45;;;;;;;;;;5060024;28;20044;-86
2022/06/23 12:26:23;;;;;;;3.15;1.77;;;;;;;;;;5060751;28;20258;-86
2022/06/23 12:29:15;;;;;;;2.95;1.60;;;;;;;;;;5060647;28;20040;-87
2022/06/23 12:32:22;;;;;;;;;;;;;;;;;;5072733;28;20037;-85
2022/06/23 12:35:02;;;;;;;3.72;2.03;;;;;;;;;;5060055;28;19940;-85
2022/06/23 12:38:02;;;;;;;3.85;1.52;;;;;;;;;;5058544;28;20986;-85
2022/06/23 12:40:46;;;;;;;5.30;1.85;;;;;;;;;;5056352;28;20127;-85
2022/06/23 12:43:40;;;;;;;5.80;2.40;;;;;;;;;;5042209;28;20052;-85
2022/06/23 12:46:16;;;;;;;4.63;1.67;;;;;;;;;;5056217;28;20130;-86
2022/06/23 12:48:43;;;;;;;3.58;1.70;;;;;;;;;;5063384;28;20076;-86
2022/06/23 12:51:35;;;;;;;4.10;1.98;;;;;;;;;;5066544;28;20036;-86
2022/06/23 12:54:31;;;;;;;4.07;1.63;;;;;;;;;;5064919;28;20051;-86
2022/06/23 12:57:27;;;;;;;4.10;1.90;;;;;;;;;;5064855;28;20037;-85
2022/06/23 13:00:16;;;;;;;4.05;1.60;;;;;;;;;;5066739;28;20048;-86
2022/06/23 13:03:19;;;;;;;3.05;1.90;;;;;;;;;;5082997;28;21526;-86
2022/06/23 13:06:00;;;;;;;3.97;2.00;;;;;;;;;;5061188;28;20075;-85
2022/06/23 13:08:52;;;;;;;4.43;1.50;;;;;;;;;;5100293;28;20505;-85
2022/06/23 13:11:29;;;;;;;3.33;1.80;;;;;;;;;;5065450;28;20099;-87
2022/06/23 13:14:28;;;;;;;4.43;1.80;;;;;;;;;;5061038;28;20068;-86
2022/06/23 13:17:03;;;;;;;5.97;1.92;;;;;;;;;;5062196;28;20065;-85
2022/06/23 13:19:46;;;;;;;3.78;1.83;;;;;;;;;;5062389;28;20044;-84
2022/06/23 13:22:49;;;;;;;4.68;1.73;;;;;;;;;;5060714;28;20120;-84
2022/06/23 13:26:05;;;;;;;4.13;1.80;;;;;;;;;;5057763;28;20453;-86
2022/06/23 13:29:15;;;;;;;3.42;1.80;;;;;;;;;;5059688;28;20051;-83
2022/06/23 13:31:46;;;;;;;5.00;2.43;;;;;;;;;;5053988;28;20067;-82
2022/06/23 13:34:27;;;;;;;3.33;1.77;;;;;;;;;;5063849;28;20045;-83
2022/06/23 13:37:08;;;;;;;3.55;1.52;;;;;;;;;;5091397;28;20064;-82
2022/06/23 13:40:31;;;;;;;5.78;2.30;;;;;;;;;;5076878;28;20044;-82
2022/06/23 13:44:14;;;;;;;6.88;1.98;;;;;;;;;;5064289;28;20510;-83
2022/06/23 13:47:08;;;;;;;4.57;2.03;;;;;;;;;;5092767;28;20044;-83
2022/06/23 13:49:43;;;;;;;4.68;2.00;;;;;;;;;;5056430;28;20057;-83
2022/06/23 13:52:37;;;;;;;3.95;2.00;;;;;;;;;;5060519;28;20040;-83
2022/06/23 13:55:15;;;;;;;4.90;2.63;;;;;;;;;;5091233;28;20494;-83
2022/06/23 13:57:54;;;;;;;6.30;1.80;;;;;;;;;;5060041;28;20052;-83
2022/06/23 14:00:32;;;;;;;5.05;1.85;;;;;;;;;;5036356;28;20127;-83
2022/06/23 14:03:37;;;;;;;5.17;1.80;;;;;;;;;;5072346;28;20048;-83
2022/06/23 14:06:46;;;;;;;3.38;2.00;;;;;;;;;;5060624;28;20303;-82
2022/06/23 14:09:42;;;;;;;4.10;1.80;;;;;;;;;;5061734;28;20049;-82
2022/06/23 14:13:01;;;;;;;4.43;2.22;;;;;;;;;;5064003;28;20046;-83
2022/06/23 14:15:55;;;;;;;4.20;1.90;;;;;;;;;;5062896;28;20068;-82
2022/06/23 14:18:47;;;;;;;6.95;1.98;;;;;;;;;;5062087;28;20051;-82
2022/06/23 14:21:53;;;;;;;4.05;2.00;;;;;;;;;;5062821;28;20044;-83
2022/06/23 14:24:38;;;;;;;4.07;1.80;;;;;;;;;;5059024;28;20169;-83
2022/06/23 14:27:12;;;;;;;4.55;2.45;;;;;;;;;;5060104;28;20131;-84
2022/06/23 14:30:00;;;;;;;5.57;2.25;;;;;;;;;;5061848;28;20066;-83
2022/06/23 14:32:57;;;;;;;4.95;1.90;;;;;;;;;;5062778;28;20163;-85
2022/06/23 14:35:43;;;;;;;4.05;2.00;;;;;;;;;;4996002;28;20522;-84
2022/06/23 14:38:58;;;;;;;;;;;;;;;;;;4987126;28;20574;-84
2022/06/23 14:41:52;;;;;;;3.17;1.90;;;;;;;;;;4995221;28;20040;-84
2022/06/23 14:44:25;;;;;;;4.50;2.00;;;;;;;;;;4995949;28;20200;-84
2022/06/23 14:47:13;;;;;;;4.65;1.77;;;;;;;;;;4968111;28;20062;-84
2022/06/23 14:50:13;;;;;;;3.75;2.00;;;;;;;;;;4977614;28;20046;-84
2022/06/23 14:52:54;;;;;;;4.32;1.92;;;;;;;;;;4994978;28;20049;-84
2022/06/23 14:55:42;;;;;;;4.45;2.10;;;;;;;;;;4994158;28;22003;-84
2022/06/23 14:58:34;;;;;;;4.43;1.98;;;;;;;;;;4994768;28;20054;-84
2022/06/23 15:01:31;;;;;;;6.80;2.08;;;;;;;;;;4994647;28;20096;-84
2022/06/23 15:04:28;;;;;;;3.08;1.90;;;;;;;;;;4994470;28;20045;-84
2022/06/23 15:06:59;;;;;;;5.65;2.00;;;;;;;;;;4995224;28;20061;-83
2022/06/23 15:10:16;;;;;;;4.75;2.00;;;;;;;;;;4994663;28;20597;-84
2022/06/23 15:12:51;;;;;;;5.85;2.20;;;;;;;;;;5030568;28;20049;-84
2022/06/23 15:15:50;;;;;;;3.95;1.83;;;;;;;;;;5061953;28;20478;-84
2022/06/23 15:18:42;;;;;;;3.10;1.88;;;;;;;;;;5063052;28;20098;-84
2022/06/23 15:25:09;;;;;;;2.45;1.60;;;;;;;;;;5043034;28;20088;-84
2022/06/23 15:27:37;;;;;;;4.95;1.80;;;;;;;;;;5040826;28;20064;-84
2022/06/23 15:30:19;;;;;;;5.38;2.00;;;;;;;;;;5040660;28;20045;-84
2022/06/23 15:33:04;;;;;;;4.07;2.05;;;;;;;;;;5043151;28;20053;-84
2022/06/23 15:35:44;;;;;;;4.90;1.83;;;;;;;;;;5041909;28;20057;-84
2022/06/23 15:38:44;;;;;;;3.92;2.17;;;;;;;;;;5025686;28;20148;-84
2022/06/23 15:41:42;;;;;;;5.93;2.75;;;;;;;;;;5026252;28;20048;-84
2022/06/23 15:44:36;;;;;;;5.85;2.70;;;;;;;;;;5039473;28;20112;-85
2022/06/23 15:47:27;;;;;;;3.97;2.08;;;;;;;;;;5008606;28;20092;-85
2022/06/23 15:50:35;;;;;;;6.25;2.13;;;;;;;;;;5042925;28;20561;-85
2022/06/23 15:53:12;;;;;;;3.22;2.10;;;;;;;;;;5021629;28;20593;-84
2022/06/23 15:55:53;;;;;;;5.82;1.85;;;;;;;;;;5040030;28;20590;-84
2022/06/23 15:58:28;;;;;;;4.80;2.13;;;;;;;;;;5040944;28;20049;-82
2022/06/23 16:01:16;;;;;;;5.70;1.83;;;;;;;;;;5050436;28;20052;-84
2022/06/23 16:03:51;;;;;;;5.32;2.03;;;;;;;;;;5075416;28;20091;-84
2022/06/23 16:06:30;;;;;;;3.45;1.95;;;;;;;;;;5091905;28;20040;-84
2022/06/23 16:09:11;;;;;;;3.58;1.85;;;;;;;;;;5060514;28;20032;-86
2022/06/23 16:11:50;;;;;;;5.15;2.10;;;;;;;;;;5062002;28;20045;-86
2022/06/23 16:14:29;;;;;;;5.50;2.10;;;;;;;;;;5060434;28;20069;-85
2022/06/23 16:17:24;;;;;;;6.57;1.73;;;;;;;;;;5061792;28;20494;-86
2022/06/23 16:20:05;;;;;;;3.30;1.80;;;;;;;;;;5060669;28;20044;-85
2022/06/23 16:22:33;;;;;;;3.13;1.80;;;;;;;;;;5062062;28;20082;-86
2022/06/23 16:25:14;;;;;;;3.60;1.83;;;;;;;;;;5062820;28;20049;-86
2022/06/23 16:27:48;;;;;;;4.60;2.13;;;;;;;;;;5053502;28;20040;-86
2022/06/23 16:30:39;;;;;;;3.67;1.90;;;;;;;;;;5057040;28;20051;-86
2022/06/23 16:33:11;;;;;;;3.92;1.80;;;;;;;;;;5093184;28;20044;-86
2022/06/23 16:35:51;;;;;;;3.72;1.75;;;;;;;;;;5064351;28;20072;-86
2022/06/23 16:38:49;;;;;;;4.18;1.92;;;;;;;;;;5097373;28;20490;-86
2022/06/23 16:41:38;;;;;;;6.95;2.40;;;;;;;;;;5096250;28;20036;-85
2022/06/23 16:44:27;;;;;;;3.90;1.83;;;;;;;;;;5055316;28;20048;-87
2022/06/23 16:46:57;;;;;;;4.93;1.80;;;;;;;;;;5064563;28;20044;-85
2022/06/23 16:49:40;;;;;;;3.28;1.52;;;;;;;;;;5080982;28;20059;-86
2022/06/23 16:52:15;;;;;;;2.85;1.60;;;;;;;;;;5094229;28;20045;-86
2022/06/23 16:55:25;;;;;;;4.55;2.13;;;;;;;;;;5064292;28;20044;-86